sensor_id;sensor_type;location;lat;lon;timestamp;P1;durP1;ratioP1;P2;durP2;ratioP2
63621;SDS011;49770;47.544;19.074;2023-06-26T03:52:22;14.00;;;10.30;;
63621;SDS011;49770;47.544;19.074;2023-06-26T03:55:26;13.30;;;11.00;;
63621;SDS011;49770;47.544;19.074;2023-06-26T03:58:29;17.87;;;11.45;;
63621;SDS011;49770;47.544;19.074;2023-06-26T04:01:32;14.13;;;10.65;;
63621;SDS011;49770;47.544;19.074;2023-06-26T04:04:35;17.15;;;10.25;;
63621;SDS011;49770;47.544;19.074;2023-06-26T04:07:37;14.35;;;9.50;;
63621;SDS011;49770;47.544;19.074;2023-06-26T04:10:40;15.57;;;9.77;;
63621;SDS011;49770;47.544;19.074;2023-06-26T04:13:43;13.65;;;9.88;;
63621;SDS011;49770;47.544;19.074;2023-06-26T04:16:46;12.98;;;10.20;;
63621;SDS011;49770;47.544;19.074;2023-06-26T04:19:49;12.45;;;9.45;;
63621;SDS011;49770;47.544;19.074;2023-06-26T04:22:52;15.75;;;9.85;;
63621;SDS011;49770;47.544;19.074;2023-06-26T04:25:54;11.63;;;9.23;;
63621;SDS011;49770;47.544;19.074;2023-06-26T04:28:57;11.38;;;9.18;;
63621;SDS011;49770;47.544;19.074;2023-06-26T04:32:00;10.93;;;9.60;;
63621;SDS011;49770;47.544;19.074;2023-06-26T04:35:03;12.95;;;9.60;;
63621;SDS011;49770;47.544;19.074;2023-06-26T04:38:06;10.93;;;9.32;;
63621;SDS011;49770;47.544;19.074;2023-06-26T04:41:08;11.50;;;9.02;;
63621;SDS011;49770;47.544;19.074;2023-06-26T04:44:11;11.50;;;9.80;;
63621;SDS011;49770;47.544;19.074;2023-06-26T04:47:14;10.05;;;8.80;;
63621;SDS011;49770;47.544;19.074;2023-06-26T04:50:17;11.20;;;9.73;;
63621;SDS011;49770;47.544;19.074;2023-06-26T04:53:22;12.30;;;10.25;;
63621;SDS011;49770;47.544;19.074;2023-06-26T04:56:25;15.38;;;9.88;;
63621;SDS011;49770;47.544;19.074;2023-06-26T04:59:28;11.73;;;9.32;;
63621;SDS011;49770;47.544;19.074;2023-06-26T05:02:31;10.27;;;9.18;;
63621;SDS011;49770;47.544;19.074;2023-06-26T05:05:34;13.85;;;9.10;;
63621;SDS011;49770;47.544;19.074;2023-06-26T05:08:36;14.75;;;9.65;;
63621;SDS011;49770;47.544;19.074;2023-06-26T05:11:39;10.43;;;9.27;;
63621;SDS011;49770;47.544;19.074;2023-06-26T05:14:41;9.80;;;8.80;;
63621;SDS011;49770;47.544;19.074;2023-06-26T05:17:44;12.02;;;9.15;;
63621;SDS011;49770;47.544;19.074;2023-06-26T05:20:47;10.95;;;8.45;;
63621;SDS011;49770;47.544;19.074;2023-06-26T05:23:51;12.68;;;8.77;;
63621;SDS011;49770;47.544;19.074;2023-06-26T05:26:58;8.93;;;7.50;;
63621;SDS011;49770;47.544;19.074;2023-06-26T05:30:01;12.27;;;8.25;;
63621;SDS011;49770;47.544;19.074;2023-06-26T05:33:05;8.75;;;7.03;;
63621;SDS011;49770;47.544;19.074;2023-06-26T05:36:09;8.52;;;7.62;;
63621;SDS011;49770;47.544;19.074;2023-06-26T05:39:11;7.47;;;6.82;;
63621;SDS011;49770;47.544;19.074;2023-06-26T05:42:15;9.20;;;7.40;;
63621;SDS011;49770;47.544;19.074;2023-06-26T05:45:18;8.20;;;7.30;;
63621;SDS011;49770;47.544;19.074;2023-06-26T05:48:20;8.00;;;7.20;;
63621;SDS011;49770;47.544;19.074;2023-06-26T05:51:23;7.50;;;6.87;;
63621;SDS011;49770;47.544;19.074;2023-06-26T05:54:27;8.02;;;7.12;;
63621;SDS011;49770;47.544;19.074;2023-06-26T05:57:30;7.70;;;6.90;;
63621;SDS011;49770;47.544;19.074;2023-06-26T06:00:33;7.65;;;6.78;;
63621;SDS011;49770;47.544;19.074;2023-06-26T06:03:36;7.78;;;7.03;;
63621;SDS011;49770;47.544;19.074;2023-06-26T06:06:39;11.23;;;7.00;;
63621;SDS011;49770;47.544;19.074;2023-06-26T06:09:42;10.07;;;7.32;;
63621;SDS011;49770;47.544;19.074;2023-06-26T06:12:45;7.55;;;6.85;;
63621;SDS011;49770;47.544;19.074;2023-06-26T06:15:48;10.10;;;6.50;;
63621;SDS011;49770;47.544;19.074;2023-06-26T06:18:53;6.93;;;6.32;;
63621;SDS011;49770;47.544;19.074;2023-06-26T06:21:56;8.13;;;6.28;;
63621;SDS011;49770;47.544;19.074;2023-06-26T06:24:58;6.68;;;6.05;;
63621;SDS011;49770;47.544;19.074;2023-06-26T06:28:04;8.18;;;6.87;;
63621;SDS011;49770;47.544;19.074;2023-06-26T06:31:07;7.32;;;6.50;;
63621;SDS011;49770;47.544;19.074;2023-06-26T06:34:10;7.25;;;6.53;;
63621;SDS011;49770;47.544;19.074;2023-06-26T06:37:12;7.40;;;6.65;;
63621;SDS011;49770;47.544;19.074;2023-06-26T06:40:15;7.18;;;6.47;;
63621;SDS011;49770;47.544;19.074;2023-06-26T06:43:18;8.07;;;7.30;;
63621;SDS011;49770;47.544;19.074;2023-06-26T06:46:21;8.45;;;7.28;;
63621;SDS011;49770;47.544;19.074;2023-06-26T06:49:24;9.75;;;6.60;;
63621;SDS011;49770;47.544;19.074;2023-06-26T06:52:27;9.48;;;6.70;;
63621;SDS011;49770;47.544;19.074;2023-06-26T06:55:29;8.20;;;6.90;;
63621;SDS011;49770;47.544;19.074;2023-06-26T06:58:32;7.28;;;6.55;;
63621;SDS011;49770;47.544;19.074;2023-06-26T07:01:36;8.35;;;7.10;;
63621;SDS011;49770;47.544;19.074;2023-06-26T07:04:39;8.45;;;6.62;;
63621;SDS011;49770;47.544;19.074;2023-06-26T07:07:41;8.07;;;7.20;;
63621;SDS011;49770;47.544;19.074;2023-06-26T07:10:44;8.43;;;7.00;;
63621;SDS011;49770;47.544;19.074;2023-06-26T07:13:47;7.60;;;6.82;;
63621;SDS011;49770;47.544;19.074;2023-06-26T07:16:50;8.20;;;7.12;;
63621;SDS011;49770;47.544;19.074;2023-06-26T07:19:52;8.45;;;7.28;;
63621;SDS011;49770;47.544;19.074;2023-06-26T07:22:55;9.10;;;7.25;;
63621;SDS011;49770;47.544;19.074;2023-06-26T07:25:58;8.23;;;7.12;;
63621;SDS011;49770;47.544;19.074;2023-06-26T07:29:01;9.23;;;7.47;;
63621;SDS011;49770;47.544;19.074;2023-06-26T07:32:03;9.15;;;7.47;;
63621;SDS011;49770;47.544;19.074;2023-06-26T07:35:06;10.32;;;7.15;;
63621;SDS011;49770;47.544;19.074;2023-06-26T07:38:09;12.05;;;7.40;;
63621;SDS011;49770;47.544;19.074;2023-06-26T07:41:12;8.95;;;7.15;;
63621;SDS011;49770;47.544;19.074;2023-06-26T07:44:14;10.20;;;7.12;;
63621;SDS011;49770;47.544;19.074;2023-06-26T07:47:17;11.27;;;7.68;;
63621;SDS011;49770;47.544;19.074;2023-06-26T07:50:20;11.25;;;7.68;;
63621;SDS011;49770;47.544;19.074;2023-06-26T07:53:25;9.40;;;6.90;;
63621;SDS011;49770;47.544;19.074;2023-06-26T07:56:28;9.57;;;6.78;;
63621;SDS011;49770;47.544;19.074;2023-06-26T07:59:30;7.95;;;6.95;;
63621;SDS011;49770;47.544;19.074;2023-06-26T08:02:33;9.25;;;7.82;;
63621;SDS011;49770;47.544;19.074;2023-06-26T08:05:36;8.57;;;7.35;;
63621;SDS011;49770;47.544;19.074;2023-06-26T08:08:39;9.60;;;7.25;;
63621;SDS011;49770;47.544;19.074;2023-06-26T08:11:42;8.80;;;7.25;;
63621;SDS011;49770;47.544;19.074;2023-06-26T08:14:45;8.52;;;7.12;;
63621;SDS011;49770;47.544;19.074;2023-06-26T08:17:48;9.75;;;7.45;;
63621;SDS011;49770;47.544;19.074;2023-06-26T08:20:53;9.43;;;7.57;;
63621;SDS011;49770;47.544;19.074;2023-06-26T08:23:55;13.15;;;7.65;;
63621;SDS011;49770;47.544;19.074;2023-06-26T08:26:58;8.57;;;7.28;;
63621;SDS011;49770;47.544;19.074;2023-06-26T08:30:01;12.77;;;7.20;;
63621;SDS011;49770;47.544;19.074;2023-06-26T08:33:04;9.82;;;7.60;;
63621;SDS011;49770;47.544;19.074;2023-06-26T08:36:07;8.57;;;7.00;;
63621;SDS011;49770;47.544;19.074;2023-06-26T08:39:09;13.20;;;7.40;;
63621;SDS011;49770;47.544;19.074;2023-06-26T08:42:12;10.50;;;7.35;;
63621;SDS011;49770;47.544;19.074;2023-06-26T08:45:15;7.37;;;6.68;;
63621;SDS011;49770;47.544;19.074;2023-06-26T08:48:18;8.10;;;6.62;;
63621;SDS011;49770;47.544;19.074;2023-06-26T08:51:25;8.93;;;5.90;;
63621;SDS011;49770;47.544;19.074;2023-06-26T08:54:34;7.20;;;6.50;;
63621;SDS011;49770;47.544;19.074;2023-06-26T08:57:42;7.68;;;6.22;;
63621;SDS011;49770;47.544;19.074;2023-06-26T09:00:49;7.50;;;5.97;;
63621;SDS011;49770;47.544;19.074;2023-06-26T09:03:52;6.90;;;5.80;;
63621;SDS011;49770;47.544;19.074;2023-06-26T09:06:55;8.63;;;6.10;;
63621;SDS011;49770;47.544;19.074;2023-06-26T09:09:57;8.43;;;5.70;;
63621;SDS011;49770;47.544;19.074;2023-06-26T09:13:00;8.77;;;6.10;;
63621;SDS011;49770;47.544;19.074;2023-06-26T09:16:08;7.32;;;6.00;;
63621;SDS011;49770;47.544;19.074;2023-06-26T09:19:12;7.12;;;6.37;;
63621;SDS011;49770;47.544;19.074;2023-06-26T09:22:15;9.20;;;6.70;;
63621;SDS011;49770;47.544;19.074;2023-06-26T09:25:18;9.60;;;7.37;;
63621;SDS011;49770;47.544;19.074;2023-06-26T09:28:21;7.12;;;6.43;;
63621;SDS011;49770;47.544;19.074;2023-06-26T09:31:28;6.32;;;5.72;;
63621;SDS011;49770;47.544;19.074;2023-06-26T09:34:42;7.12;;;6.53;;
63621;SDS011;49770;47.544;19.074;2023-06-26T09:37:48;7.60;;;6.47;;
63621;SDS011;49770;47.544;19.074;2023-06-26T09:40:51;8.73;;;6.15;;
63621;SDS011;49770;47.544;19.074;2023-06-26T09:43:54;7.93;;;6.00;;
63621;SDS011;49770;47.544;19.074;2023-06-26T09:47:03;6.63;;;5.53;;
63621;SDS011;49770;47.544;19.074;2023-06-26T09:50:09;6.82;;;5.93;;
63621;SDS011;49770;47.544;19.074;2023-06-26T09:53:23;6.68;;;6.07;;
63621;SDS011;49770;47.544;19.074;2023-06-26T09:56:28;6.37;;;5.78;;
63621;SDS011;49770;47.544;19.074;2023-06-26T09:59:32;7.80;;;5.95;;
63621;SDS011;49770;47.544;19.074;2023-06-26T10:02:52;7.47;;;6.12;;
63621;SDS011;49770;47.544;19.074;2023-06-26T10:05:55;7.43;;;6.72;;
63621;SDS011;49770;47.544;19.074;2023-06-26T10:08:59;7.47;;;6.65;;
63621;SDS011;49770;47.544;19.074;2023-06-26T10:12:03;9.63;;;6.70;;
63621;SDS011;49770;47.544;19.074;2023-06-26T10:15:28;8.07;;;6.25;;
63621;SDS011;49770;47.544;19.074;2023-06-26T10:18:32;8.88;;;6.80;;
63621;SDS011;49770;47.544;19.074;2023-06-26T10:21:39;6.60;;;6.00;;
63621;SDS011;49770;47.544;19.074;2023-06-26T10:24:43;6.70;;;6.03;;
63621;SDS011;49770;47.544;19.074;2023-06-26T10:27:53;6.90;;;6.20;;
63621;SDS011;49770;47.544;19.074;2023-06-26T10:31:00;7.32;;;6.00;;
63621;SDS011;49770;47.544;19.074;2023-06-26T10:34:06;7.82;;;6.50;;
63621;SDS011;49770;47.544;19.074;2023-06-26T10:37:09;6.87;;;6.28;;
63621;SDS011;49770;47.544;19.074;2023-06-26T10:40:12;6.90;;;6.03;;
63621;SDS011;49770;47.544;19.074;2023-06-26T10:43:16;6.60;;;6.00;;
63621;SDS011;49770;47.544;19.074;2023-06-26T10:46:20;6.57;;;5.97;;
63621;SDS011;49770;47.544;19.074;2023-06-26T10:49:25;8.48;;;6.10;;
63621;SDS011;49770;47.544;19.074;2023-06-26T10:52:30;6.32;;;5.72;;
63621;SDS011;49770;47.544;19.074;2023-06-26T10:55:42;9.23;;;5.95;;
63621;SDS011;49770;47.544;19.074;2023-06-26T10:58:47;7.18;;;6.47;;
63621;SDS011;49770;47.544;19.074;2023-06-26T11:01:54;7.87;;;6.03;;
63621;SDS011;49770;47.544;19.074;2023-06-26T11:05:00;9.70;;;6.22;;
63621;SDS011;49770;47.544;19.074;2023-06-26T11:08:07;8.40;;;6.20;;
63621;SDS011;49770;47.544;19.074;2023-06-26T11:11:11;7.50;;;5.68;;
63621;SDS011;49770;47.544;19.074;2023-06-26T11:14:14;8.05;;;5.78;;
63621;SDS011;49770;47.544;19.074;2023-06-26T11:17:18;8.38;;;6.00;;
63621;SDS011;49770;47.544;19.074;2023-06-26T11:20:21;6.32;;;5.45;;
63621;SDS011;49770;47.544;19.074;2023-06-26T11:23:24;6.50;;;5.90;;
63621;SDS011;49770;47.544;19.074;2023-06-26T11:26:28;8.05;;;5.80;;
63621;SDS011;49770;47.544;19.074;2023-06-26T11:29:30;8.73;;;5.97;;
63621;SDS011;49770;47.544;19.074;2023-06-26T11:32:34;6.70;;;5.95;;
63621;SDS011;49770;47.544;19.074;2023-06-26T11:35:38;7.22;;;6.25;;
63621;SDS011;49770;47.544;19.074;2023-06-26T11:38:41;6.80;;;5.45;;
63621;SDS011;49770;47.544;19.074;2023-06-26T11:41:44;7.68;;;6.35;;
63621;SDS011;49770;47.544;19.074;2023-06-26T11:44:47;6.30;;;5.55;;
63621;SDS011;49770;47.544;19.074;2023-06-26T11:47:50;5.90;;;5.35;;
63621;SDS011;49770;47.544;19.074;2023-06-26T11:50:56;6.40;;;5.72;;
63621;SDS011;49770;47.544;19.074;2023-06-26T11:54:02;6.20;;;5.60;;
63621;SDS011;49770;47.544;19.074;2023-06-26T11:57:07;6.10;;;5.55;;
63621;SDS011;49770;47.544;19.074;2023-06-26T12:00:10;7.55;;;5.45;;
63621;SDS011;49770;47.544;19.074;2023-06-26T12:03:14;7.75;;;6.15;;
63621;SDS011;49770;47.544;19.074;2023-06-26T12:06:18;6.60;;;5.68;;
63621;SDS011;49770;47.544;19.074;2023-06-26T12:09:21;6.03;;;5.43;;
63621;SDS011;49770;47.544;19.074;2023-06-26T12:12:24;6.00;;;5.40;;
63621;SDS011;49770;47.544;19.074;2023-06-26T12:15:27;6.05;;;5.43;;
63621;SDS011;49770;47.544;19.074;2023-06-26T12:18:37;6.18;;;5.60;;
63621;SDS011;49770;47.544;19.074;2023-06-26T12:24:43;7.07;;;5.20;;
63621;SDS011;49770;47.544;19.074;2023-06-26T12:27:47;7.07;;;5.80;;
63621;SDS011;49770;47.544;19.074;2023-06-26T12:34:27;6.50;;;5.60;;
63621;SDS011;49770;47.544;19.074;2023-06-26T12:37:35;7.03;;;5.55;;
63621;SDS011;49770;47.544;19.074;2023-06-26T12:40:44;6.22;;;5.62;;
63621;SDS011;49770;47.544;19.074;2023-06-26T12:43:49;8.50;;;6.28;;
63621;SDS011;49770;47.544;19.074;2023-06-26T12:46:59;6.15;;;5.53;;
63621;SDS011;49770;47.544;19.074;2023-06-26T12:50:04;6.85;;;5.70;;
63621;SDS011;49770;47.544;19.074;2023-06-26T12:53:08;6.45;;;5.57;;
63621;SDS011;49770;47.544;19.074;2023-06-26T12:56:11;9.35;;;5.47;;
63621;SDS011;49770;47.544;19.074;2023-06-26T12:59:14;6.05;;;5.50;;
63621;SDS011;49770;47.544;19.074;2023-06-26T13:02:17;6.78;;;6.15;;
63621;SDS011;49770;47.544;19.074;2023-06-26T13:05:20;6.50;;;5.78;;
63621;SDS011;49770;47.544;19.074;2023-06-26T13:08:25;6.50;;;5.90;;
63621;SDS011;49770;47.544;19.074;2023-06-26T13:11:27;8.63;;;6.03;;
63621;SDS011;49770;47.544;19.074;2023-06-26T13:14:31;6.82;;;5.95;;
63621;SDS011;49770;47.544;19.074;2023-06-26T13:17:34;6.45;;;5.95;;
63621;SDS011;49770;47.544;19.074;2023-06-26T13:20:37;6.68;;;5.45;;
63621;SDS011;49770;47.544;19.074;2023-06-26T13:23:40;8.00;;;6.15;;
63621;SDS011;49770;47.544;19.074;2023-06-26T13:26:43;6.12;;;5.55;;
63621;SDS011;49770;47.544;19.074;2023-06-26T13:29:46;5.93;;;5.32;;
63621;SDS011;49770;47.544;19.074;2023-06-26T13:32:48;6.00;;;5.50;;
63621;SDS011;49770;47.544;19.074;2023-06-26T13:35:52;6.62;;;5.97;;
63621;SDS011;49770;47.544;19.074;2023-06-26T13:38:54;6.22;;;5.53;;
63621;SDS011;49770;47.544;19.074;2023-06-26T13:42:00;6.03;;;5.53;;
63621;SDS011;49770;47.544;19.074;2023-06-26T13:45:03;6.95;;;6.28;;
63621;SDS011;49770;47.544;19.074;2023-06-26T13:48:17;6.10;;;5.50;;
63621;SDS011;49770;47.544;19.074;2023-06-26T13:51:20;6.07;;;5.45;;
63621;SDS011;49770;47.544;19.074;2023-06-26T13:54:23;7.82;;;5.97;;
63621;SDS011;49770;47.544;19.074;2023-06-26T13:57:26;7.30;;;6.40;;
63621;SDS011;49770;47.544;19.074;2023-06-26T14:00:31;6.78;;;5.90;;
63621;SDS011;49770;47.544;19.074;2023-06-26T14:03:35;7.78;;;6.03;;
63621;SDS011;49770;47.544;19.074;2023-06-26T14:06:38;7.35;;;5.87;;
63621;SDS011;49770;47.544;19.074;2023-06-26T14:09:41;12.52;;;6.07;;
63621;SDS011;49770;47.544;19.074;2023-06-26T14:12:44;9.23;;;6.05;;
63621;SDS011;49770;47.544;19.074;2023-06-26T14:15:47;6.43;;;5.87;;
63621;SDS011;49770;47.544;19.074;2023-06-26T14:18:49;7.45;;;6.53;;
63621;SDS011;49770;47.544;19.074;2023-06-26T14:21:52;6.80;;;6.10;;
63621;SDS011;49770;47.544;19.074;2023-06-26T14:24:56;6.43;;;5.78;;
63621;SDS011;49770;47.544;19.074;2023-06-26T14:27:58;7.10;;;5.90;;
63621;SDS011;49770;47.544;19.074;2023-06-26T14:31:01;6.30;;;5.70;;
63621;SDS011;49770;47.544;19.074;2023-06-26T14:34:04;7.90;;;5.70;;
63621;SDS011;49770;47.544;19.074;2023-06-26T14:37:07;6.53;;;5.93;;
63621;SDS011;49770;47.544;19.074;2023-06-26T14:40:10;5.95;;;5.35;;
63621;SDS011;49770;47.544;19.074;2023-06-26T14:43:13;8.90;;;5.90;;
63621;SDS011;49770;47.544;19.074;2023-06-26T14:46:17;6.40;;;5.70;;
63621;SDS011;49770;47.544;19.074;2023-06-26T14:49:20;6.07;;;5.47;;
63621;SDS011;49770;47.544;19.074;2023-06-26T14:52:23;11.30;;;5.80;;
63621;SDS011;49770;47.544;19.074;2023-06-26T14:55:25;6.05;;;5.47;;
63621;SDS011;49770;47.544;19.074;2023-06-26T14:58:28;5.95;;;5.40;;
63621;SDS011;49770;47.544;19.074;2023-06-26T15:01:31;10.13;;;5.85;;
63621;SDS011;49770;47.544;19.074;2023-06-26T15:04:34;6.28;;;5.03;;
63621;SDS011;49770;47.544;19.074;2023-06-26T15:07:36;7.00;;;4.93;;
63621;SDS011;49770;47.544;19.074;2023-06-26T15:10:39;6.30;;;5.70;;
63621;SDS011;49770;47.544;19.074;2023-06-26T15:13:43;5.87;;;5.32;;
63621;SDS011;49770;47.544;19.074;2023-06-26T15:16:45;6.10;;;5.50;;
63621;SDS011;49770;47.544;19.074;2023-06-26T15:19:48;6.28;;;5.68;;
63621;SDS011;49770;47.544;19.074;2023-06-26T15:22:51;5.93;;;5.32;;
63621;SDS011;49770;47.544;19.074;2023-06-26T15:25:54;7.20;;;6.00;;
